AirNav   Airventure
 
 481 users online  

6TS9 MCP Heliport
Plano, Texas, USA

GOING TO PLANO?


FAA INFORMATION EFFECTIVE 20 JULY 2017

Location

FAA Identifier: 6TS9
Lat/Long: 33-01-21.4200N / 096-45-59.6000W
33-01.357000N / 096-45.993333W
33.0226167 / -96.7665556
(estimated)
Elevation: 744 ft. / 227 m (estimated)
Variation: 06E (1985)
From city: 3 miles N of PLANO, TX
Time zone: UTC -5 (UTC -6 during Standard Time)
Zip code: 75075

Heliport Operations

Heliport use: Private use, MEDICAL.
Activation date: 08/1985
Control tower: no
ARTCC: FORT WORTH CENTER
FSS: FORT WORTH FLIGHT SERVICE STATION
Attendance: UNATNDD
HELI RSTD TO MEDICAL EMERG FLTS.
Wind indicator: yes
Segmented circle: no

Heliport Communications

WX AWOS-3 at ADS (5 nm SW): PHONE 972-386-4855
WX ASOS at DAL (11 nm S): PHONE 214-353-1551
WX ASOS at TKI (13 nm NE): 119.925 (972-548-8525)
WX AWOS-3 at 49T (15 nm S): 135.425 (214-670-1243)
WX ASOS at DFW (16 nm SW): PHONE 972-615-2608
WX AWOS-3 at F46 (18 nm E): 121.25 (972-772-6699)

Nearby radio navigation aids

VOR radial/distance  VOR name  Freq  Var
CVEr035/10.5COWBOY VOR/DME116.2006E
TTTr050/16.6MAVERICK VOR/DME113.1006E
FUZr063/22.3RANGER VORTAC115.7006E

 
NDB name  Hdg/Dist  Freq  Var  ID
MELISA209/16.942103EVLY ...- .-.. -.--
MESQUITE314/17.524803EPQF .--. --.- ..-.
JECCA325/24.338806EJUG .--- ..- --.
CADDO MILLS262/26.131606EMII -- .. ..
TRAVIS295/30.526006EAVZ .- ...- --..

Heliport Services

Runway Information

Helipad H2

Dimensions: 44 x 44 ft. / 13 x 13 m
Surface: concrete
Latitude: 33-01.346667N
Longitude: 096-45.992833W
Elevation: 744.0 ft.
Traffic pattern: leftleft

Helipad H1

Dimensions: 30 x 30 ft. / 9 x 9 m
CONC TD PAD WITH A 60 X 60' LNDG AREA.
Surface: concrete
Latitude: 33-01.369000N
Longitude: 096-45.992833W
Elevation: 744.0 ft.
Traffic pattern: leftleft

Heliport Ownership and Management from official FAA records

Ownership: Privately-owned
Owner: HCA MEDICAL CENTER OF PLANO
3901 W 15TH
PLANO, TX 75075
Phone 214-596-6800
Manager: HOSPITAL ADMINISTRATOR
3901 W 15TH
PLANO, TX 75075
Phone 214-596-6800

Additional Remarks

A40-1 HELI LGTD WITH PERIMETER LGTS & ILLUMINATED NGTS.
A52-H1 OBSTNS: 70'HOSPITAL BLDG 200'E. MKD 50'PLINES 100'N. 50'OFC BLDG 1000'ESE. 30'TREES 200'E. 45'APT COMPLEX 1000'NW. 250'WTR TWR 2500'W & BLDG 300'WNW.

Instrument Procedures

There are no published instrument procedures at 6TS9.

Some nearby airports with instrument procedures:

KADS - Addison Airport (5 nm SW)
KDAL - Dallas Love Field Airport (11 nm S)
KTKI - McKinney National Airport (13 nm NE)
KDFW - Dallas-Fort Worth International Airport (16 nm SW)
F46 - Ralph M Hall/Rockwall Municipal Airport (18 nm E)
 
Loc | Ops | Rwys | IFR | FBO | Links
Com | Nav | Svcs | Stats | Notes

Lake Texoma Jet Center
AirBoss

 
Area around 6TS9 (MCP Heliport)
 
Road maps at: MapQuest Bing Google
 
Aerial photo
No photo
 
Sectional chart

 
Airport distance calculator
Flying to MCP Heliport? Find the distance to fly.

From to 6TS9

Sunrise and sunset
Times for 28-Jul-2017
 Local
(UTC-5)
 Zulu
(UTC)
Morning civil twilight06:1111:11
Sunrise06:3911:39
Sunset20:2801:28
Evening civil twilight20:5601:56

Current date and time
Zulu (UTC)  28-Jul-2017 10:55:06
Local (UTC-5)  28-Jul-2017 05:55:06
 
METAR
KADS 
4nm SW 
281035Z AUTO 21006KT 10SM CLR 28/21 A2993 RMK AO2 T02830206
KDAL 
11nm S 
280953Z 22009KT 10SM SCT250 BKN300 29/21 A2990 RMK AO2 SLP118 T02940211
KTKI 
13nm NE 
280953Z AUTO 18006KT 10SM CLR 27/23 A2990 RMK AO2 SLP117 T02670228
KDFW 
15nm SW 
280953Z 22010KT 10SM SCT170 29/21 A2989 RMK AO2 SLP111 T02890211 $
KF46 
18nm E 
281035Z AUTO 21008KT 10SM CLR 27/22 A2992 RMK AO2 T02690215
TAF
KDAL 
11nm S 
280853Z 2809/2906 19010KT P6SM BKN300 FM281600 26008KT P6SM SCT300 FM290400 03006KT P6SM SCT300
KDFW 
15nm SW 
280853Z 2809/2912 19011KT P6SM BKN300 FM281600 26008KT P6SM SCT300 FM290400 03006KT P6SM SCT300
NOTAMs
Click for the latest NOTAMs
NOTAMs are issued by the DoD/FAA and will open in a separate window not controlled by AirNav.

 

 
 

Would you like to see your business listed on this page?

 If your business provides an interesting product or service to pilots, flight crews, aircraft, or users of the MCP Heliport, you should consider listing it here.  To start the listing process, click on the button below
 
Add a business
 

Other Pages about MCP Heliport

Update a link
 
Copyright © AirNav, LLC. All rights reserved. Privacy Policy  Contact